Time;durP1;ratioP1;P1;durP2;ratioP2;P2;SDS_P1;SDS_P2;PMS_P1;PMS_P2;Temp;Humidity;BMP_temperature;BMP_pressure;BME280_temperature;BME280_humidity;BME280_pressure;Samples;Min_cycle;Max_cycle;Signal;HPM_P1;HPM_P2
2022/04/02 08:09:34;;;;;;;1.97;0.60;;;8.60;92.30;;;;;;4978011;23;20289;-66
2022/04/02 08:12:02;;;;;;;0.70;0.47;;;9.10;91.90;;;;;;4979760;28;20543;-66
2022/04/02 08:14:30;;;;;;;1.53;0.57;;;8.70;90.60;;;;;;4971826;28;20203;-68
2022/04/02 08:16:58;;;;;;;0.80;0.50;;;8.10;90.50;;;;;;4971784;28;20214;-66
2022/04/02 08:19:26;;;;;;;2.83;0.67;;;7.60;91.70;;;;;;4970911;28;20211;-66
2022/04/02 08:21:52;;;;;;;1.50;0.57;;;7.90;92.30;;;;;;4971413;28;20322;-68
2022/04/02 08:24:19;;;;;;;1.87;0.67;;;8.40;91.60;;;;;;4972086;28;20203;-66
2022/04/02 08:27:01;;;;;;;0.60;0.50;;;8.70;90.40;;;;;;4972094;28;20223;-66
2022/04/02 08:29:46;;;;;;;0.90;0.70;;;8.90;90.50;;;;;;4973726;28;20218;-66
2022/04/02 08:32:22;;;;;;;0.93;0.50;;;8.90;90.20;;;;;;4976042;28;20214;-67
2022/04/02 08:35:04;;;;;;;1.30;0.80;;;8.70;90.60;;;;;;4977955;28;20226;-66
2022/04/02 08:37:43;;;;;;;0.93;0.60;;;8.50;90.40;;;;;;4977846;28;20274;-67
2022/04/02 08:40:37;;;;;;;1.13;0.63;;;7.90;90.90;;;;;;4977723;28;20218;-68
2022/04/02 08:43:48;;;;;;;0.87;0.50;;;7.40;91.50;;;;;;4977753;28;20571;-67
2022/04/02 08:46:33;;;;;;;1.57;0.80;;;7.40;91.40;;;;;;4977023;28;20231;-67
2022/04/02 08:49:13;;;;;;;1.27;0.70;;;7.10;91.80;;;;;;4976878;28;20238;-67
2022/04/02 08:51:42;;;;;;;1.47;0.57;;;7.00;92.00;;;;;;4976928;28;20213;-68
2022/04/02 08:54:24;;;;;;;1.47;0.80;;;7.10;92.30;;;;;;4977434;28;20215;-67
2022/04/02 08:56:56;;;;;;;1.37;0.60;;;7.00;91.30;;;;;;4977420;28;20262;-67
2022/04/02 08:59:34;;;;;;;1.07;0.53;;;7.10;91.40;;;;;;4977365;28;20306;-68
2022/04/02 09:02:38;;;;;;;0.83;0.60;;;7.00;91.40;;;;;;4977334;28;20207;-68
2022/04/02 09:05:11;;;;;;;2.07;0.90;;;6.70;92.40;;;;;;4977270;28;20318;-67
2022/04/02 09:08:17;;;;;;;0.90;0.50;;;7.00;91.80;;;;;;4977003;28;20707;-67
2022/04/02 09:11:24;;;;;;;2.63;0.67;;;6.60;92.30;;;;;;4977023;28;20214;-68
2022/04/02 09:14:19;;;;;;;1.70;0.63;;;6.70;92.80;;;;;;4977076;28;20576;-69
2022/04/02 09:17:02;;;;;;;1.97;0.60;;;7.20;92.60;;;;;;4976881;28;20226;-68
2022/04/02 09:19:51;;;;;;;0.80;0.60;;;7.60;92.40;;;;;;4977158;28;20635;-69
2022/04/02 09:22:34;;;;;;;0.97;0.70;;;7.30;91.50;;;;;;4977107;28;20211;-68
2022/04/02 09:25:23;;;;;;;2.17;0.67;;;7.20;91.70;;;;;;4976877;28;20262;-68
2022/04/02 09:28:09;;;;;;;0.70;0.67;;;7.00;92.30;;;;;;4977114;28;20235;-68
2022/04/02 09:31:10;;;;;;;1.73;0.80;;;7.30;93.20;;;;;;4976806;28;20207;-68
2022/04/02 09:34:14;;;;;;;2.27;0.90;;;7.20;92.90;;;;;;4921806;28;20217;-68
2022/04/02 09:36:59;;;;;;;2.13;1.03;;;7.40;93.50;;;;;;4950200;28;21086;-71
2022/04/02 09:39:42;;;;;;;1.50;0.73;;;7.60;93.40;;;;;;4975476;28;20223;-70
2022/04/02 09:42:25;;;;;;;2.60;0.90;;;7.90;92.50;;;;;;4975323;28;20564;-71
2022/04/02 09:45:00;;;;;;;1.47;0.90;;;7.40;92.50;;;;;;4974677;28;20241;-73
2022/04/02 09:47:58;;;;;;;1.63;0.90;;;7.30;93.10;;;;;;4975029;28;20215;-69
2022/04/02 09:50:28;;;;;;;2.53;0.73;;;7.40;93.80;;;;;;4975572;28;20207;-68
2022/04/02 09:52:57;;;;;;;1.77;0.70;;;7.50;93.70;;;;;;4974823;28;20215;-68
2022/04/02 09:55:27;;;;;;;1.57;0.87;;;7.00;92.80;;;;;;4968449;28;20225;-68
2022/04/02 09:58:14;;;;;;;2.50;0.90;;;6.90;93.40;;;;;;4963302;28;20697;-68
2022/04/02 10:00:53;;;;;;;1.37;0.80;;;6.90;93.80;;;;;;4954477;28;20208;-68
2022/04/02 10:03:36;;;;;;;1.20;0.83;;;6.60;93.80;;;;;;4955070;28;20306;-68
2022/04/02 10:06:26;;;;;;;1.23;0.90;;;6.40;95.10;;;;;;4965059;28;20227;-68
2022/04/02 10:09:05;;;;;;;2.20;1.00;;;6.00;94.90;;;;;;4969953;28;20710;-68
2022/04/02 10:11:34;;;;;;;4.13;0.90;;;5.70;94.50;;;;;;4972258;28;20210;-68
2022/04/02 10:14:03;;;;;;;2.20;1.07;;;5.40;95.10;;;;;;4967216;28;20674;-68
2022/04/02 10:16:31;;;;;;;1.93;1.10;;;5.40;96.00;;;;;;4966953;28;20231;-68
2022/04/02 10:18:59;;;;;;;1.33;0.83;;;5.50;95.90;;;;;;4969230;28;20200;-68
2022/04/02 10:21:29;;;;;;;1.87;1.13;;;5.60;95.70;;;;;;4974160;28;20734;-68
2022/04/02 10:24:18;;;;;;;1.80;1.00;;;5.50;95.70;;;;;;4974116;28;20254;-68
2022/04/02 10:26:50;;;;;;;1.53;0.90;;;5.30;96.00;;;;;;4973570;28;20317;-68
2022/04/02 10:29:31;;;;;;;4.67;1.87;;;5.30;96.40;;;;;;4973736;28;20711;-68
2022/04/02 10:32:02;;;;;;;2.17;1.00;;;5.30;96.80;;;;;;4974113;28;20270;-68
2022/04/02 10:34:42;;;;;;;2.40;1.17;;;5.40;96.70;;;;;;4974037;28;20218;-68
2022/04/02 10:37:15;;;;;;;3.53;1.63;;;5.50;97.00;;;;;;4974197;28;20214;-67
2022/04/02 10:39:52;;;;;;;1.67;1.10;;;5.40;96.10;;;;;;4973419;28;20219;-68
2022/04/02 10:42:20;;;;;;;2.83;1.50;;;5.50;96.60;;;;;;4973927;28;20261;-68
2022/04/02 10:44:51;;;;;;;4.53;1.20;;;5.60;96.70;;;;;;4973510;28;20298;-68
2022/04/02 10:47:21;;;;;;;2.07;1.20;;;5.80;96.20;;;;;;4973155;28;20211;-68
2022/04/02 10:50:03;;;;;;;2.40;1.23;;;5.80;95.80;;;;;;4962610;28;20247;-69
2022/04/02 10:52:32;;;;;;;1.87;1.13;;;5.80;96.00;;;;;;4964720;28;20255;-67
2022/04/02 10:54:59;;;;;;;5.90;2.07;;;5.80;95.90;;;;;;4961863;28;20705;-68
2022/04/02 10:57:28;;;;;;;2.67;1.50;;;5.70;95.90;;;;;;4962231;28;20204;-67
2022/04/02 11:00:01;;;;;;;1.67;1.10;;;6.00;96.00;;;;;;4953844;28;20220;-68
2022/04/02 11:02:43;;;;;;;2.40;1.20;;;6.20;95.80;;;;;;4954210;28;20275;-68
2022/04/02 11:05:13;;;;;;;2.07;1.10;;;6.10;96.00;;;;;;4957350;28;20223;-68
2022/04/02 11:07:43;;;;;;;2.30;1.00;;;6.00;96.30;;;;;;4973328;28;20286;-68
2022/04/02 11:10:14;;;;;;;3.97;1.00;;;5.90;95.90;;;;;;4973090;28;20210;-71
2022/04/02 11:12:44;;;;;;;3.97;1.27;;;5.90;96.30;;;;;;4972919;28;20203;-73
2022/04/02 11:15:14;;;;;;;1.53;1.10;;;6.10;97.20;;;;;;4964154;28;20317;-71
2022/04/02 11:17:43;;;;;;;1.87;1.03;;;6.60;96.50;;;;;;4969338;28;20294;-71
2022/04/02 11:20:15;;;;;;;2.00;1.00;;;6.80;94.20;;;;;;4954008;28;20204;-72
2022/04/02 11:23:04;;;;;;;1.83;0.80;;;6.50;93.70;;;;;;4964191;28;20207;-70
2022/04/02 11:25:35;;;;;;;2.47;1.10;;;6.40;94.30;;;;;;4972340;28;20806;-72
2022/04/02 11:28:10;;;;;;;2.03;1.00;;;6.40;94.00;;;;;;4972129;28;20747;-73
2022/04/02 11:30:40;;;;;;;2.70;1.23;;;6.40;93.80;;;;;;4972491;28;20663;-70
2022/04/02 11:33:09;;;;;;;1.40;1.00;;;6.70;94.80;;;;;;4972860;28;20571;-71
2022/04/02 11:35:44;;;;;;;1.37;0.97;;;7.10;94.60;;;;;;4960250;28;20235;-70
2022/04/02 11:38:25;;;;;;;1.40;1.03;;;7.10;92.50;;;;;;4991686;28;20579;-72
2022/04/02 11:40:56;;;;;;;1.57;0.80;;;6.90;93.10;;;;;;4981732;28;20558;-71
2022/04/02 11:43:31;;;;;;;1.97;0.90;;;6.90;92.90;;;;;;4956143;28;20673;-71
2022/04/02 11:46:00;;;;;;;1.87;0.80;;;6.80;92.50;;;;;;4970859;28;20718;-69
2022/04/02 11:48:32;;;;;;;1.33;0.77;;;6.60;92.70;;;;;;4973935;28;20614;-69
2022/04/02 11:51:12;;;;;;;2.97;1.10;;;6.70;93.50;;;;;;4953739;28;20680;-73
2022/04/02 11:53:41;;;;;;;1.67;0.70;;;6.70;92.30;;;;;;4952940;28;20215;-71
2022/04/02 11:56:24;;;;;;;2.80;0.70;;;6.70;91.20;;;;;;4972021;28;20289;-71
2022/04/02 11:58:52;;;;;;;2.83;1.10;;;6.70;90.30;;;;;;4972207;28;20211;-70
2022/04/02 12:01:20;;;;;;;2.60;1.33;;;6.60;91.30;;;;;;4973739;28;20215;-70
2022/04/02 12:04:05;;;;;;;1.30;0.73;;;6.60;91.80;;;;;;4975768;28;20604;-73
2022/04/02 12:06:35;;;;;;;1.77;1.03;;;6.60;91.70;;;;;;4959964;28;20596;-71
2022/04/02 12:09:11;;;;;;;2.27;0.93;;;6.50;91.90;;;;;;4971993;28;20290;-71
2022/04/02 12:11:41;;;;;;;1.73;0.97;;;6.30;92.90;;;;;;4959426;28;20204;-73
2022/04/02 12:14:08;;;;;;;4.00;1.50;;;6.10;91.80;;;;;;4952499;28;20300;-74
2022/04/02 12:16:38;;;;;;;1.90;1.10;;;6.20;91.90;;;;;;4968610;28;20717;-74
2022/04/02 12:19:11;;;;;;;3.20;1.40;;;6.30;91.70;;;;;;4971736;28;20209;-71
2022/04/02 12:21:42;;;;;;;1.77;1.10;;;6.80;92.50;;;;;;4971832;28;20241;-76
2022/04/02 12:24:11;;;;;;;2.23;1.23;;;7.20;91.80;;;;;;4957504;28;20672;-74
2022/04/02 12:26:38;;;;;;;2.87;1.83;;;7.30;92.10;;;;;;4969890;28;20234;-70
2022/04/02 12:29:06;;;;;;;1.40;0.90;;;7.40;92.80;;;;;;4971935;28;20234;-67
2022/04/02 12:31:35;;;;;;;2.00;1.20;;;7.30;91.30;;;;;;4971670;28;20676;-71
2022/04/02 12:34:02;;;;;;;2.63;1.20;;;7.00;92.30;;;;;;4958563;28;20208;-70
2022/04/02 12:36:31;;;;;;;2.00;1.00;;;6.60;92.70;;;;;;4968038;28;20281;-74
2022/04/02 12:39:03;;;;;;;1.83;1.20;;;6.30;93.60;;;;;;4958729;28;20208;-70
2022/04/02 12:41:32;;;;;;;3.13;1.00;;;6.00;95.60;;;;;;4952483;28;20219;-70
2022/04/02 12:44:01;;;;;;;3.00;1.10;;;5.90;96.60;;;;;;4952563;28;20216;-74
2022/04/02 12:46:29;;;;;;;2.63;1.10;;;5.90;96.90;;;;;;4968244;28;20265;-71
2022/04/02 12:48:57;;;;;;;2.40;1.20;;;5.80;96.80;;;;;;4971727;28;20231;-72
2022/04/02 12:51:24;;;;;;;2.67;1.20;;;5.90;96.70;;;;;;4972132;28;20211;-73
2022/04/02 12:53:58;;;;;;;2.27;1.30;;;5.90;96.70;;;;;;4962985;28;20204;-70
2022/04/02 12:56:27;;;;;;;1.83;1.17;;;5.80;96.70;;;;;;4954982;28;20226;-70
2022/04/02 12:58:57;;;;;;;3.53;1.20;;;5.70;96.80;;;;;;4952399;28;20399;-70
2022/04/02 13:01:32;;;;;;;3.67;1.70;;;5.80;96.70;;;;;;4965693;28;20207;-71
2022/04/02 13:04:10;;;;;;;2.60;1.30;;;5.80;96.80;;;;;;4959052;28;20214;-72
2022/04/02 13:06:46;;;;;;;5.03;1.30;;;5.80;96.90;;;;;;4968719;28;20233;-73
2022/04/02 13:09:18;;;;;;;2.40;1.13;;;5.60;96.90;;;;;;4952658;28;20243;-70
2022/04/02 13:12:03;;;;;;;2.40;1.40;;;5.70;97.40;;;;;;4952127;28;20673;-73
2022/04/02 13:14:43;;;;;;;2.70;1.40;;;5.60;97.70;;;;;;4954372;28;20208;-69
2022/04/02 13:17:12;;;;;;;3.83;1.57;;;5.70;97.70;;;;;;4965382;28;20204;-70
2022/04/02 13:22:39;;;;;;;3.07;1.33;;;6.00;97.00;;;;;;4964438;28;20219;-70
2022/04/02 13:25:12;;;;;;;2.53;1.20;;;6.00;97.80;;;;;;4966117;28;20219;-72
2022/04/02 13:28:14;;;;;;;2.43;1.50;;;6.30;97.40;;;;;;4965440;28;20196;-69
2022/04/02 13:30:44;;;;;;;3.87;1.50;;;6.60;96.90;;;;;;4964734;28;20245;-68
2022/04/02 13:33:50;;;;;;;2.80;1.50;;;6.90;96.90;;;;;;4965027;28;20288;-67
2022/04/02 13:36:25;;;;;;;2.30;1.20;;;7.30;95.70;;;;;;4964058;28;20239;-67
2022/04/02 13:38:56;;;;;;;2.27;1.20;;;7.30;94.70;;;;;;4962701;28;20560;-66
2022/04/02 13:41:32;;;;;;;2.10;1.10;;;6.90;94.60;;;;;;4965123;28;20195;-69
2022/04/02 13:44:01;;;;;;;3.70;1.20;;;6.50;95.30;;;;;;4965223;28;20210;-70
2022/04/02 13:46:35;;;;;;;3.97;1.50;;;6.10;97.20;;;;;;4963360;28;20220;-68
2022/04/02 13:49:07;;;;;;;2.10;1.23;;;5.80;98.60;;;;;;4964552;28;20238;-69
2022/04/02 13:51:44;;;;;;;2.40;1.57;;;5.70;99.80;;;;;;4965309;28;20196;-68
2022/04/02 13:54:17;;;;;;;1.80;1.30;;;5.60;99.40;;;;;;4965433;28;20659;-70
2022/04/02 13:56:58;;;;;;;3.30;1.30;;;5.70;98.90;;;;;;4960900;28;20223;-68
2022/04/02 13:59:30;;;;;;;7.03;1.63;;;5.70;97.20;;;;;;4964265;28;20204;-68
2022/04/02 14:01:59;;;;;;;2.90;1.30;;;5.80;96.00;;;;;;4962842;28;20267;-69
2022/04/02 14:04:34;;;;;;;3.10;1.00;;;5.90;96.10;;;;;;4964010;28;20202;-69
2022/04/02 14:07:03;;;;;;;2.87;1.70;;;6.00;95.20;;;;;;4960597;28;20204;-69
2022/04/02 14:09:32;;;;;;;3.33;1.20;;;6.20;94.80;;;;;;4962456;28;20245;-69
2022/04/02 14:12:05;;;;;;;1.83;1.27;;;6.50;94.20;;;;;;4962959;28;20207;-69
2022/04/02 14:14:44;;;;;;;1.90;1.20;;;6.80;93.30;;;;;;4963296;28;20898;-68
2022/04/02 14:17:16;;;;;;;3.63;1.20;;;7.10;93.70;;;;;;4962952;28;20206;-69
2022/04/02 14:19:47;;;;;;;1.93;1.27;;;7.10;92.60;;;;;;4960443;28;20200;-69
2022/04/02 14:22:21;;;;;;;1.70;1.20;;;6.90;92.90;;;;;;4963681;28;20234;-69
2022/04/02 14:25:01;;;;;;;1.93;1.20;;;6.60;94.20;;;;;;4961820;23;20228;-66
2022/04/02 14:27:45;;;;;;;2.07;1.10;;;6.30;95.60;;;;;;4939720;28;20269;-69
2022/04/02 14:30:23;;;;;;;1.97;1.20;;;5.90;96.50;;;;;;4935487;29;20236;-66
2022/04/02 14:33:38;;;;;;;1.27;0.73;;;5.70;96.00;;;;;;4951079;28;20204;-69
2022/04/02 14:36:39;;;;;;;2.10;1.20;;;5.70;96.00;;;;;;4955763;28;20236;-68
2022/04/02 14:39:44;;;;;;;1.50;1.10;;;5.60;96.30;;;;;;4955783;28;20664;-69
2022/04/02 14:42:11;;;;;;;1.97;1.00;;;5.40;97.50;;;;;;4955678;28;20683;-69
2022/04/02 14:45:03;;;;;;;8.10;3.27;;;5.50;97.90;;;;;;4955923;28;20215;-66
2022/04/02 14:48:05;;;;;;;2.80;1.30;;;5.50;98.20;;;;;;4955790;28;20216;-66
2022/04/02 14:51:02;;;;;;;2.00;1.20;;;5.80;97.90;;;;;;4933785;28;20238;-67
2022/04/02 14:54:05;;;;;;;3.40;1.27;;;5.80;98.10;;;;;;4946795;28;20208;-66
2022/04/02 14:57:16;;;;;;;2.17;1.20;;;6.00;98.30;;;;;;4955679;28;20727;-69
2022/04/02 15:00:21;;;;;;;3.40;1.77;;;6.20;96.70;;;;;;4955837;29;20212;-69
2022/04/02 15:03:36;;;;;;;1.73;0.97;;;6.40;96.40;;;;;;4935178;28;20208;-68
2022/04/02 15:06:09;;;;;;;1.87;0.97;;;6.50;95.30;;;;;;4914999;29;20233;-69
2022/04/02 15:08:59;;;;;;;2.37;1.37;;;6.40;94.80;;;;;;4947389;28;20211;-69
2022/04/02 15:11:31;;;;;;;2.57;1.20;;;6.50;95.10;;;;;;4955179;28;20673;-69
2022/04/02 15:14:11;;;;;;;3.27;1.37;;;6.50;94.90;;;;;;4955409;29;20231;-69
2022/04/02 15:16:39;;;;;;;1.80;1.00;;;6.70;95.00;;;;;;4955534;28;20232;-69
2022/04/02 15:19:21;;;;;;;2.20;1.20;;;6.80;94.50;;;;;;4955457;29;20240;-68
2022/04/02 15:21:48;;;;;;;5.03;1.30;;;6.90;94.30;;;;;;4954293;28;20219;-69
2022/04/02 15:24:17;;;;;;;2.67;1.27;;;6.90;94.50;;;;;;4955202;28;20212;-69
2022/04/02 15:26:52;;;;;;;2.23;1.67;;;6.80;94.20;;;;;;4955121;28;20320;-69
2022/04/02 15:29:31;;;;;;;1.83;1.40;;;6.80;94.20;;;;;;4954724;28;20223;-69
2022/04/02 15:32:00;;;;;;;3.90;2.33;;;6.80;94.40;;;;;;4955099;29;20549;-68
2022/04/02 15:34:28;;;;;;;3.77;1.40;;;6.80;94.50;;;;;;4955200;28;20204;-66
2022/04/02 15:37:05;;;;;;;3.30;1.87;;;7.00;94.30;;;;;;4955335;28;20235;-68
2022/04/02 15:39:34;;;;;;;4.80;2.63;;;7.10;94.10;;;;;;4954835;28;20672;-67
2022/04/02 15:42:24;;;;;;;2.57;1.30;;;6.90;93.60;;;;;;4953309;28;20763;-69
2022/04/02 15:44:58;;;;;;;3.57;1.60;;;6.90;94.20;;;;;;4954197;28;20291;-66
2022/04/02 15:47:43;;;;;;;1.73;1.27;;;6.80;94.50;;;;;;4954810;28;20203;-69
2022/04/02 15:50:13;;;;;;;1.37;0.93;;;6.40;94.20;;;;;;4954538;28;20231;-69
2022/04/02 15:52:41;;;;;;;3.43;1.23;;;6.40;94.80;;;;;;4945666;28;20217;-68
2022/04/02 15:55:16;;;;;;;3.03;1.47;;;6.30;95.00;;;;;;4935028;29;20248;-66
2022/04/02 15:58:24;;;;;;;3.20;1.27;;;6.30;95.20;;;;;;4934599;29;20668;-68
2022/04/02 16:00:53;;;;;;;1.73;1.20;;;6.50;95.60;;;;;;4934171;29;20236;-69
2022/04/02 16:03:40;;;;;;;1.40;0.93;;;6.50;94.60;;;;;;4944328;29;20204;-70
2022/04/02 16:06:28;;;;;;;2.30;1.00;;;6.60;94.90;;;;;;4953230;29;20228;-68
2022/04/02 16:09:56;;;;;;;1.27;0.97;;;6.60;94.50;;;;;;4946218;28;20200;-68
2022/04/02 16:12:31;;;;;;;2.10;1.00;;;6.70;94.40;;;;;;4954113;28;20208;-68
2022/04/02 16:15:29;;;;;;;2.23;1.00;;;6.70;93.70;;;;;;4953396;28;20383;-66
2022/04/02 16:18:25;;;;;;;1.43;1.00;;;6.60;93.70;;;;;;4903517;29;20209;-69
2022/04/02 16:21:22;;;;;;;1.83;0.90;;;6.50;94.00;;;;;;4933419;29;20208;-68
2022/04/02 16:23:54;;;;;;;2.53;1.43;;;6.50;94.10;;;;;;4934263;29;20682;-69
2022/04/02 16:26:21;;;;;;;1.63;0.93;;;6.60;94.30;;;;;;4934871;28;20238;-69
2022/04/02 16:28:48;;;;;;;1.40;0.90;;;6.70;94.20;;;;;;4947434;28;20211;-81
2022/04/02 16:31:17;;;;;;;2.03;1.17;;;6.70;93.70;;;;;;4950497;28;20310;-74
2022/04/02 16:33:47;;;;;;;2.97;1.10;;;6.70;94.00;;;;;;4937770;29;20208;-78
2022/04/02 16:36:18;;;;;;;1.83;1.20;;;6.80;93.80;;;;;;4942599;28;20223;-74
2022/04/02 16:38:51;;;;;;;1.47;0.93;;;6.80;93.90;;;;;;4942370;28;20204;-85
2022/04/02 16:41:28;;;;;;;2.07;0.90;;;6.60;93.70;;;;;;4942358;28;20689;-80
2022/04/02 16:44:31;;;;;;;1.60;1.07;;;6.50;94.20;;;;;;4941349;28;20204;-77
2022/04/02 16:47:03;;;;;;;1.97;1.20;;;6.40;94.70;;;;;;4942212;28;20233;-70
2022/04/02 16:49:34;;;;;;;2.83;1.53;;;6.30;95.10;;;;;;4936752;28;20206;-78
2022/04/02 16:52:03;;;;;;;3.77;1.63;;;6.10;95.20;;;;;;4935600;28;20385;-69
2022/04/02 16:54:30;;;;;;;2.30;0.83;;;6.10;94.90;;;;;;4938958;29;20207;-68
2022/04/02 16:56:57;;;;;;;2.73;1.30;;;6.20;95.00;;;;;;4939618;28;20213;-69
2022/04/02 16:59:24;;;;;;;1.70;1.23;;;6.10;94.90;;;;;;4948562;28;20211;-77
2022/04/02 17:01:51;;;;;;;2.40;1.47;;;6.10;94.90;;;;;;4950722;28;20307;-76
2022/04/02 17:04:19;;;;;;;11.67;3.80;;;5.90;95.10;;;;;;4937142;29;20666;-74
2022/04/02 17:06:48;;;;;;;8.87;3.10;;;6.10;95.50;;;;;;4940634;28;20255;-78
2022/04/02 17:09:26;;;;;;;3.53;1.23;;;6.00;95.70;;;;;;4956902;28;20252;-70
2022/04/02 17:11:53;;;;;;;2.93;1.37;;;6.10;96.00;;;;;;4956816;28;20703;-75
2022/04/02 17:14:31;;;;;;;2.87;1.20;;;6.20;95.80;;;;;;4957271;28;20207;-69
2022/04/02 17:16:58;;;;;;;2.23;1.30;;;6.30;95.60;;;;;;4957177;28;20206;-69
2022/04/02 17:19:36;;;;;;;3.37;1.37;;;6.30;96.20;;;;;;4956829;28;20577;-75
2022/04/02 17:22:06;;;;;;;2.30;1.33;;;6.30;95.80;;;;;;4950378;28;20211;-70
2022/04/02 17:24:35;;;;;;;4.03;1.77;;;6.40;95.80;;;;;;4939479;29;20219;-75
2022/04/02 17:27:10;;;;;;;2.90;1.40;;;6.40;96.10;;;;;;4943327;28;20212;-76
2022/04/02 17:29:38;;;;;;;4.40;1.57;;;6.30;96.20;;;;;;4946120;28;20259;-75
2022/04/02 17:32:10;;;;;;;2.40;1.33;;;6.40;96.30;;;;;;4946355;28;20205;-73
2022/04/02 17:34:56;;;;;;;5.03;1.30;;;6.40;96.30;;;;;;4946638;28;20235;-75
2022/04/02 17:37:34;;;;;;;2.97;1.60;;;6.40;96.40;;;;;;4949441;28;20208;-74
2022/04/02 17:40:06;;;;;;;3.67;1.20;;;6.50;96.20;;;;;;4956536;28;20208;-74
2022/04/02 17:42:35;;;;;;;6.47;1.60;;;6.40;96.60;;;;;;4956270;28;20685;-70
2022/04/02 17:45:20;;;;;;;4.07;1.50;;;6.30;96.50;;;;;;4956184;28;20234;-75
2022/04/02 17:47:48;;;;;;;4.50;1.83;;;6.40;96.70;;;;;;4956217;28;20671;-76
2022/04/02 17:50:16;;;;;;;1.57;1.27;;;6.40;96.40;;;;;;4956127;28;20247;-75
2022/04/02 17:52:55;;;;;;;1.83;1.30;;;6.30;96.00;;;;;;4956620;28;20211;-75
2022/04/02 17:55:25;;;;;;;2.27;1.33;;;6.20;96.40;;;;;;4947436;28;20705;-72
2022/04/02 17:58:11;;;;;;;5.70;1.17;;;6.30;96.10;;;;;;4948914;28;20208;-73
2022/04/02 18:00:40;;;;;;;1.30;0.73;;;6.20;96.20;;;;;;4956049;28;20210;-75
2022/04/02 18:03:11;;;;;;;1.50;1.00;;;5.90;96.00;;;;;;4956363;28;20249;-70
2022/04/02 18:05:39;;;;;;;1.87;0.87;;;5.70;96.40;;;;;;4953721;28;20251;-73
2022/04/02 18:08:08;;;;;;;2.80;1.03;;;5.70;96.50;;;;;;4955848;28;20208;-75
2022/04/02 18:10:36;;;;;;;1.70;1.00;;;5.70;96.70;;;;;;4955354;28;20224;-73
2022/04/02 18:13:04;;;;;;;1.67;0.87;;;5.70;97.10;;;;;;4956074;28;20214;-68
2022/04/02 18:15:31;;;;;;;1.40;1.00;;;5.50;97.70;;;;;;4956094;28;20283;-74
2022/04/02 18:17:58;;;;;;;3.17;1.10;;;5.40;98.20;;;;;;4952612;28;20701;-82
2022/04/02 18:20:25;;;;;;;2.33;1.20;;;5.20;98.90;;;;;;4956167;28;20299;-81
2022/04/02 18:22:52;;;;;;;8.63;1.63;;;5.10;99.10;;;;;;4956425;28;20295;-81
2022/04/02 18:25:20;;;;;;;4.03;1.30;;;5.20;99.30;;;;;;4934442;28;20235;-77
2022/04/02 18:27:47;;;;;;;1.73;0.90;;;5.10;98.80;;;;;;4944869;29;20208;-74
2022/04/02 18:30:16;;;;;;;1.60;0.83;;;5.30;98.90;;;;;;4951954;28;20232;-74
2022/04/02 18:32:43;;;;;;;3.83;1.00;;;5.20;98.60;;;;;;4953389;28;20218;-73
2022/04/02 18:35:10;;;;;;;1.50;0.83;;;5.20;98.60;;;;;;4942346;28;20243;-75
2022/04/02 18:37:37;;;;;;;1.67;0.80;;;5.50;98.10;;;;;;4935722;29;20573;-77
2022/04/02 18:40:06;;;;;;;4.37;0.73;;;5.60;97.60;;;;;;4935683;28;20218;-71
2022/04/02 18:42:34;;;;;;;1.87;0.90;;;5.60;97.60;;;;;;4952241;28;20681;-69
2022/04/02 18:45:01;;;;;;;4.87;1.60;;;5.60;97.70;;;;;;4949385;28;20224;-69
2022/04/02 18:47:28;;;;;;;3.23;1.50;;;5.80;97.40;;;;;;4949602;28;20205;-69
2022/04/02 18:49:55;;;;;;;1.37;0.90;;;6.00;97.50;;;;;;4944561;28;20211;-69
2022/04/02 18:52:23;;;;;;;1.73;1.10;;;5.90;97.50;;;;;;4946250;28;20239;-69
2022/04/02 18:54:50;;;;;;;2.10;0.90;;;6.00;97.60;;;;;;4945754;28;20224;-69
2022/04/02 18:57:17;;;;;;;1.10;0.80;;;6.00;97.40;;;;;;4944095;28;20309;-69
2022/04/02 18:59:45;;;;;;;3.00;1.10;;;6.00;97.30;;;;;;4948027;28;20208;-69
2022/04/02 19:02:12;;;;;;;1.13;0.83;;;6.00;97.60;;;;;;4949507;28;20576;-69
2022/04/02 19:04:39;;;;;;;2.77;1.37;;;6.00;97.50;;;;;;4947359;28;20564;-69
2022/04/02 19:07:06;;;;;;;4.23;1.90;;;6.00;97.20;;;;;;4944080;29;20216;-67
2022/04/02 19:09:33;;;;;;;2.87;1.40;;;6.10;97.30;;;;;;4952667;28;20749;-69
2022/04/02 19:12:00;;;;;;;3.83;1.37;;;6.20;97.20;;;;;;4942221;29;20327;-69
2022/04/02 19:14:27;;;;;;;5.33;1.83;;;6.20;97.30;;;;;;4954414;28;20212;-69
2022/04/02 19:16:56;;;;;;;3.33;1.27;;;6.20;97.30;;;;;;4948822;28;20228;-68
2022/04/02 19:19:24;;;;;;;1.73;1.13;;;6.10;97.20;;;;;;4950627;28;20217;-68
2022/04/02 19:21:51;;;;;;;2.67;1.57;;;6.00;97.50;;;;;;4948385;28;20212;-68
2022/04/02 19:24:18;;;;;;;3.70;1.67;;;5.90;97.80;;;;;;4950063;28;20223;-68
2022/04/02 19:26:45;;;;;;;2.17;1.30;;;5.90;97.80;;;;;;4945418;29;20229;-68
2022/04/02 19:29:12;;;;;;;6.37;1.73;;;5.80;97.90;;;;;;4946048;28;20223;-68
2022/04/02 19:31:39;;;;;;;5.13;1.83;;;5.70;98.10;;;;;;4954625;28;20254;-68
2022/04/02 19:34:07;;;;;;;4.63;1.60;;;5.70;98.40;;;;;;4951602;28;20290;-69
2022/04/02 19:36:34;;;;;;;2.17;1.43;;;5.60;98.60;;;;;;4952233;28;20235;-68
2022/04/02 19:39:02;;;;;;;1.47;1.10;;;5.50;98.90;;;;;;4946570;28;20299;-69
2022/04/02 19:41:28;;;;;;;2.30;1.27;;;5.60;98.90;;;;;;4946922;28;20601;-68
2022/04/02 19:43:58;;;;;;;2.80;1.20;;;5.60;98.60;;;;;;4946895;28;20227;-69
2022/04/02 19:46:26;;;;;;;2.07;1.13;;;5.60;98.80;;;;;;4948206;28;20248;-69
2022/04/02 19:48:53;;;;;;;2.23;1.33;;;5.60;98.90;;;;;;4950943;28;20259;-69
2022/04/02 19:51:22;;;;;;;2.03;1.23;;;5.60;98.90;;;;;;4946062;28;20294;-69
2022/04/02 19:53:50;;;;;;;2.90;1.20;;;5.50;98.90;;;;;;4946689;28;20212;-69
2022/04/02 19:56:17;;;;;;;2.97;1.33;;;5.40;99.00;;;;;;4951600;28;20228;-68
2022/04/02 19:58:44;;;;;;;2.60;1.50;;;5.40;99.30;;;;;;4949371;28;20290;-69
2022/04/02 20:01:11;;;;;;;2.57;1.00;;;5.40;99.30;;;;;;4940980;28;20205;-69
2022/04/02 20:03:38;;;;;;;4.07;1.00;;;5.30;99.40;;;;;;4945269;28;20276;-70
2022/04/02 20:06:05;;;;;;;1.67;1.10;;;5.10;99.70;;;;;;4946485;28;20224;-70
2022/04/02 20:08:40;;;;;;;3.30;1.33;;;5.10;99.90;;;;;;4951529;29;20227;-68
2022/04/02 20:11:07;;;;;;;2.90;1.70;;;5.20;99.80;;;;;;4942901;28;20227;-68
2022/04/02 20:13:34;;;;;;;4.23;1.10;;;5.10;99.70;;;;;;4942007;28;20204;-70
2022/04/02 20:16:01;;;;;;;4.60;1.67;;;5.00;99.90;;;;;;4952279;28;20242;-69
2022/04/02 20:18:28;;;;;;;2.83;1.50;;;5.00;99.90;;;;;;4946446;28;20209;-68
2022/04/02 20:20:55;;;;;;;3.10;1.63;;;5.00;99.90;;;;;;4950025;28;20266;-68
2022/04/02 20:23:22;;;;;;;1.77;1.23;;;5.10;99.90;;;;;;4944129;28;20220;-69
2022/04/02 20:25:51;;;;;;;1.73;1.20;;;5.20;99.90;;;;;;4947001;28;20832;-69
2022/04/02 20:28:17;;;;;;;2.23;1.30;;;5.30;99.90;;;;;;4954046;28;20212;-68
2022/04/02 20:30:45;;;;;;;4.77;1.00;;;5.20;99.80;;;;;;4950358;28;20227;-68
2022/04/02 20:33:11;;;;;;;3.00;0.90;;;5.20;99.90;;;;;;4955170;28;20211;-68
2022/04/02 20:35:39;;;;;;;2.33;1.23;;;5.10;99.90;;;;;;4951565;28;20231;-69
2022/04/02 20:38:07;;;;;;;2.97;1.27;;;5.20;99.90;;;;;;4955664;28;20268;-68
2022/04/02 20:40:34;;;;;;;2.83;1.27;;;5.00;99.90;;;;;;4951634;28;20311;-68
2022/04/02 20:43:03;;;;;;;3.07;1.43;;;5.10;99.90;;;;;;4953142;28;20267;-69
2022/04/02 20:45:30;;;;;;;2.20;1.20;;;5.10;99.90;;;;;;4951858;28;20232;-68
2022/04/02 20:47:57;;;;;;;4.27;1.00;;;5.00;99.90;;;;;;4949246;28;20303;-69
2022/04/02 20:50:24;;;;;;;3.30;1.27;;;5.00;99.90;;;;;;4950648;28;20285;-69
2022/04/02 20:52:50;;;;;;;1.67;1.10;;;5.00;99.90;;;;;;4952591;28;20240;-69
2022/04/02 20:55:18;;;;;;;5.47;1.33;;;5.00;99.90;;;;;;4951887;28;20306;-69
2022/04/02 20:57:45;;;;;;;3.30;1.30;;;5.00;99.90;;;;;;4957453;28;20215;-70
2022/04/02 21:00:14;;;;;;;2.07;1.20;;;5.00;99.90;;;;;;4956620;28;20728;-69
2022/04/02 21:02:41;;;;;;;3.43;1.33;;;5.00;99.90;;;;;;4955980;28;20212;-69
2022/04/02 21:05:09;;;;;;;1.90;1.10;;;4.90;99.90;;;;;;4957149;28;20234;-69
2022/04/02 21:07:36;;;;;;;3.00;1.10;;;4.90;99.90;;;;;;4958174;28;20259;-69
2022/04/02 21:10:04;;;;;;;1.80;1.03;;;4.70;99.90;;;;;;4957994;28;20215;-68
2022/04/02 21:12:31;;;;;;;3.17;1.30;;;4.60;99.90;;;;;;4958108;28;20240;-68
2022/04/02 21:14:59;;;;;;;3.03;1.60;;;4.50;99.90;;;;;;4958032;28;20224;-69
2022/04/02 21:17:27;;;;;;;4.43;1.50;;;4.50;99.90;;;;;;4957135;28;20208;-68
2022/04/02 21:19:54;;;;;;;2.60;1.10;;;4.60;99.90;;;;;;4958084;28;20239;-69
2022/04/02 21:22:21;;;;;;;2.60;1.40;;;4.70;99.90;;;;;;4957940;29;20215;-68
2022/04/02 21:24:48;;;;;;;2.47;1.13;;;4.60;99.90;;;;;;4957517;28;20222;-68
2022/04/02 21:27:15;;;;;;;3.43;1.37;;;4.70;99.90;;;;;;4957841;28;20215;-69
2022/04/02 21:29:42;;;;;;;10.43;1.37;;;4.60;99.90;;;;;;4957431;28;20677;-69
2022/04/02 21:32:09;;;;;;;2.27;1.30;;;4.50;99.90;;;;;;4957443;28;20236;-69
2022/04/02 21:34:37;;;;;;;3.30;1.30;;;4.60;99.90;;;;;;4957031;29;20205;-69
2022/04/02 21:37:04;;;;;;;2.17;1.30;;;4.60;99.90;;;;;;4957593;28;20215;-69
2022/04/02 21:39:31;;;;;;;3.23;1.47;;;4.60;99.90;;;;;;4956187;28;20250;-70
2022/04/02 21:41:58;;;;;;;2.20;1.07;;;4.60;99.90;;;;;;4957495;28;20222;-70
